رامسر, ایران

09:49 PM IRST on دسامبر 04, 2016 (GMT +0330)
Ramsar | | Change Station

Elev -66 ft 36.91 °N, 50.68 °E | Updated 19 minutes ago

Clear
صاف
50 °F
Feels Like 50 °F
N
5
باد متغير باد from WSW

امروز
High -- | Low -- °F
--% Chance of Precip.
دیروز
High -- | Low -- °F
Precip. -- در
فشار 30.18 در
ديد -9999.0 مايل، ميل (در برابر كيلومتر
ابری
قطره شبنم 46 °F
رطوبت 87%
بارش باران 0.00 در
برف عمیق Not available.
7:04 AM 4:50 PM
Waxing Crescent, 24% visible
METAR OINR 041800Z 24004KT CAVOK 10/08 Q1022
فشار 30.18 در
ديد -9999.0 مايل، ميل (در برابر كيلومتر
ابری
قطره شبنم 46 °F
رطوبت 87%
بارش باران 0.00 در
برف عمیق Not available.
7:04 AM 4:50 PM
Waxing Crescent, 24% visible
METAR OINR 041800Z 24004KT CAVOK 10/08 Q1022

10-Day Weather Forecast

No radar image for this location.
×

Almanac

ستاره شناسی

Dec. 04, 2016 Rise Set
وقت حقیقی
تاریک و روشن اجتماعی
تاریک روشن دریایی
شفق و فلق نجومی
ماه
میزان روشنایی روز
طول روز
Tomorrow will be .
, % of the Moon is Illuminated

Today's Extremes

Country Highs Country Lows

Community

WunderPhotos

Upload Photos

1,955,637 photos uploaded!

WunderBlog® & News

Nearby

تمیزی هوا

  تمیزی هوا AQ Index آلاینده
Not available.

عمق برف

Station Depth Elevation

Earthquake Activity

شهر Distance Mag. Time & Date
Minimum magnitude displayed is 2.5.

Coastal Water Temperatures

منطقه درجه حرارت

Stations

Nearby Weather Stations

Station Location دما باد سرد قطره شبنم رطوبت باد Precip. Elev ارتقا دادن Type